Time;durP1;ratioP1;P1;durP2;ratioP2;P2;SDS_P1;SDS_P2;PMS_P1;PMS_P2;Temp;Humidity;BMP_temperature;BMP_pressure;BME280_temperature;BME280_humidity;BME280_pressure;Samples;Min_cycle;Max_cycle;Signal;HPM_P1;HPM_P2
2022/06/24 00:00:09;;;;;;;24.00;9.15;;;;;;;20.37;89.44;100467.47;5070647;28;20028;-79
2022/06/24 00:02:35;;;;;;;21.70;9.68;;;;;;;20.24;91.11;100482.56;5068334;28;20024;-80
2022/06/24 00:05:04;;;;;;;22.77;10.13;;;;;;;20.16;91.38;100496.31;5070122;28;20036;-79
2022/06/24 00:07:42;;;;;;;23.98;10.52;;;;;;;20.10;93.21;100532.50;5066532;28;20210;-80
2022/06/24 00:10:16;;;;;;;23.13;10.60;;;;;;;20.05;94.37;100562.22;5085879;28;20119;-80
2022/06/24 00:12:44;;;;;;;29.40;12.07;;;;;;;20.02;95.59;100584.41;5066499;28;20376;-80
2022/06/24 00:15:09;;;;;;;22.73;12.75;;;;;;;19.99;95.76;100563.78;5066519;28;20434;-80
2022/06/24 00:17:34;;;;;;;28.58;16.33;;;;;;;19.94;96.33;100554.44;5071434;28;20090;-81
2022/06/24 00:20:02;;;;;;;32.50;17.80;;;;;;;19.85;97.21;100561.84;5068981;28;20021;-82
2022/06/24 00:22:30;;;;;;;29.00;20.02;;;;;;;19.82;97.97;100581.28;5068436;28;20021;-81
2022/06/24 00:25:11;;;;;;;31.77;20.77;;;;;;;19.77;97.99;100589.97;5069052;28;20028;-82
2022/06/24 00:27:37;;;;;;;28.27;20.83;;;;;;;19.74;98.42;100625.78;5065941;28;20086;-82
2022/06/24 00:30:10;;;;;;;29.80;19.63;;;;;;;19.68;98.68;100626.50;5063945;28;20068;-82
2022/06/24 00:32:35;;;;;;;30.05;17.40;;;;;;;19.63;98.96;100607.94;5069770;28;20518;-82
2022/06/24 00:35:09;;;;;;;27.70;15.65;;;;;;;19.56;98.31;100613.25;5068674;28;20057;-82
2022/06/24 00:37:35;;;;;;;24.42;12.43;;;;;;;19.53;97.97;100629.97;5067704;28;20028;-82
2022/06/24 00:40:10;;;;;;;22.98;12.32;;;;;;;19.44;97.01;100647.34;5065318;28;20028;-83
2022/06/24 00:42:46;;;;;;;23.50;10.45;;;;;;;19.32;95.68;100656.94;5064453;28;20036;-84
2022/06/24 00:45:29;;;;;;;22.67;11.57;;;;;;;19.27;96.83;100662.06;5061942;28;20112;-83
2022/06/24 00:47:56;;;;;;;23.60;9.43;;;;;;;19.14;98.13;100647.13;5068676;28;20044;-82
2022/06/24 00:50:25;;;;;;;20.30;8.55;;;;;;;19.03;97.71;100628.41;5072462;28;20032;-82
2022/06/24 00:52:52;;;;;;;22.87;8.50;;;;;;;18.98;98.04;100625.38;5067644;28;20047;-82
2022/06/24 00:55:20;;;;;;;19.35;7.22;;;;;;;18.94;98.61;100624.00;5065698;28;20318;-83
2022/06/24 00:57:45;;;;;;;16.63;6.07;;;;;;;18.90;97.76;100637.09;5067877;28;20021;-83
2022/06/24 01:00:14;;;;;;;14.32;5.25;;;;;;;18.80;96.23;100633.69;5068753;28;20490;-83
2022/06/24 01:02:41;;;;;;;14.38;5.25;;;;;;;18.68;96.31;100620.44;5068075;28;20213;-83
2022/06/24 01:05:09;;;;;;;16.83;4.95;;;;;;;18.62;96.67;100614.81;5064278;28;20037;-83
2022/06/24 01:07:38;;;;;;;13.10;4.05;;;;;;;18.50;94.58;100612.44;5067585;28;20090;-83
2022/06/24 01:10:05;;;;;;;11.88;3.97;;;;;;;18.43;96.28;100613.28;5067134;28;20028;-83
2022/06/24 01:12:32;;;;;;;9.52;3.55;;;;;;;18.36;96.83;100594.09;5068611;28;20074;-83
2022/06/24 01:14:57;;;;;;;9.65;3.50;;;;;;;18.31;96.75;100574.69;5067067;28;20020;-83
2022/06/24 01:17:23;;;;;;;8.07;3.28;;;;;;;18.25;96.46;100570.78;5082167;28;20468;-83
2022/06/24 01:19:48;;;;;;;11.63;3.35;;;;;;;18.15;95.65;100562.78;5059622;28;20024;-83
2022/06/24 01:22:25;;;;;;;10.05;3.22;;;;;;;18.07;95.53;100560.06;5070447;28;20024;-83
2022/06/24 01:24:52;;;;;;;10.35;2.85;;;;;;;18.07;96.56;100561.91;5055371;28;20124;-83
2022/06/24 01:27:17;;;;;;;10.43;2.83;;;;;;;17.95;95.92;100561.41;5066425;28;20043;-83
2022/06/24 01:29:44;;;;;;;8.15;2.63;;;;;;;17.92;96.76;100562.59;5068138;28;20032;-82
2022/06/24 01:32:09;;;;;;;8.45;2.72;;;;;;;17.86;96.04;100562.38;5068435;28;20025;-82
2022/06/24 01:34:35;;;;;;;7.45;2.55;;;;;;;17.75;94.83;100553.53;5067030;28;20501;-82
2022/06/24 01:37:00;;;;;;;10.60;2.83;;;;;;;17.71;96.67;100552.16;5064457;28;20020;-82
2022/06/24 01:39:25;;;;;;;5.68;2.40;;;;;;;17.70;96.87;100552.31;5067774;28;20416;-82
2022/06/24 01:41:51;;;;;;;8.52;2.70;;;;;;;17.68;96.92;100551.66;5062532;28;20021;-82
2022/06/24 01:44:17;;;;;;;7.95;2.63;;;;;;;17.64;95.72;100559.25;5066858;28;20032;-82
2022/06/24 01:46:43;;;;;;;10.18;2.30;;;;;;;17.60;96.08;100552.47;5068282;28;20332;-82
2022/06/24 01:49:08;;;;;;;7.50;2.40;;;;;;;17.60;97.25;100533.44;5068691;28;20035;-82
2022/06/24 01:51:35;;;;;;;13.38;2.50;;;;;;;17.57;97.64;100534.66;5072396;28;20078;-82
2022/06/24 01:54:01;;;;;;;7.60;2.28;;;;;;;17.51;96.70;100529.88;5067036;28;20039;-82
2022/06/24 01:56:26;;;;;;;5.32;2.35;;;;;;;17.53;98.62;100527.00;5072025;28;20119;-82
2022/06/24 01:58:52;;;;;;;6.47;2.50;;;;;;;17.48;96.61;100532.91;5070621;28;20093;-82
2022/06/24 02:01:17;;;;;;;6.55;2.63;;;;;;;17.46;96.81;100524.06;5061342;28;20024;-82
2022/06/24 02:03:43;;;;;;;6.10;2.50;;;;;;;17.40;96.04;100516.59;5073509;28;20095;-82
2022/06/24 02:06:10;;;;;;;4.97;2.08;;;;;;;17.38;96.60;100515.88;5068329;28;20036;-82
2022/06/24 02:08:36;;;;;;;6.13;2.50;;;;;;;17.38;96.48;100507.75;5072203;28;20040;-82
2022/06/24 02:13:47;;;;;;;7.85;2.60;;;;;;;17.41;98.20;100519.16;5071102;28;20436;-81
2022/06/24 02:16:13;;;;;;;5.72;2.33;;;;;;;17.40;97.50;100522.88;5071071;28;20124;-81
2022/06/24 02:18:39;;;;;;;7.63;2.60;;;;;;;17.39;98.50;100515.72;5070357;28;20476;-81
2022/06/24 02:21:04;;;;;;;9.10;3.00;;;;;;;17.37;97.79;100525.06;5075039;28;20036;-81
2022/06/24 02:23:30;;;;;;;7.35;2.78;;;;;;;17.39;98.24;100514.88;5057626;28;20531;-81
2022/06/24 02:25:56;;;;;;;6.65;2.58;;;;;;;17.37;97.40;100516.94;5087915;28;20114;-81
2022/06/24 02:28:22;;;;;;;7.88;2.85;;;;;;;17.34;97.68;100517.25;5072728;28;20064;-82
2022/06/24 02:30:51;;;;;;;9.90;3.10;;;;;;;17.30;96.76;100508.56;5073417;28;20456;-82
2022/06/24 02:33:16;;;;;;;10.20;3.07;;;;;;;17.28;97.15;100507.91;5072095;28;20060;-84
2022/06/24 02:35:41;;;;;;;6.13;3.10;;;;;;;17.27;98.08;100495.31;5072042;28;20448;-84
2022/06/24 02:38:07;;;;;;;10.68;3.10;;;;;;;17.23;97.79;100494.81;5070676;28;20108;-84
2022/06/24 02:40:45;;;;;;;9.98;2.92;;;;;;;17.21;98.19;100483.25;5069944;28;20036;-84
2022/06/24 02:43:16;;;;;;;14.10;3.88;;;;;;;17.19;99.04;100481.72;5072626;28;20031;-83
2022/06/24 02:45:47;;;;;;;10.82;3.40;;;;;;;17.17;99.77;100479.16;5071098;28;20074;-83
2022/06/24 02:48:14;;;;;;;9.82;3.50;;;;;;;17.16;99.92;100488.34;5065101;28;20375;-83
2022/06/24 02:50:51;;;;;;;9.30;3.20;;;;;;;17.15;100.00;100491.22;5074445;28;20024;-83
2022/06/24 02:53:18;;;;;;;8.90;3.38;;;;;;;17.14;100.00;100473.22;5071080;28;20549;-82
2022/06/24 02:55:45;;;;;;;8.45;3.30;;;;;;;17.12;100.00;100479.66;5080671;28;20047;-82
2022/06/24 02:58:11;;;;;;;9.80;3.20;;;;;;;17.10;100.00;100470.84;5074462;28;20086;-82
2022/06/24 03:00:36;;;;;;;7.20;3.17;;;;;;;17.10;100.00;100465.41;5072079;28;20124;-82
2022/06/24 03:03:02;;;;;;;9.52;3.70;;;;;;;17.10;100.00;100459.97;5066151;28;20477;-82
2022/06/24 03:05:28;;;;;;;9.00;3.10;;;;;;;17.09;100.00;100458.28;5071515;28;20123;-82
2022/06/24 03:07:54;;;;;;;8.82;3.33;;;;;;;17.12;100.00;100460.66;5067760;28;20143;-82
2022/06/24 03:10:20;;;;;;;12.40;3.55;;;;;;;17.09;100.00;100455.56;5073365;28;20640;-82
2022/06/24 03:12:46;;;;;;;10.70;4.05;;;;;;;17.09;100.00;100460.16;5072583;28;20036;-82
2022/06/24 03:15:12;;;;;;;9.25;3.72;;;;;;;17.09;100.00;100461.00;5073122;28;20475;-82
2022/06/24 03:17:38;;;;;;;12.02;4.30;;;;;;;17.14;100.00;100454.22;5071290;28;20035;-82
2022/06/24 03:20:05;;;;;;;12.52;4.07;;;;;;;17.16;100.00;100446.75;5078253;28;20067;-82
2022/06/24 03:22:31;;;;;;;11.15;4.30;;;;;;;17.14;100.00;100452.34;5085863;28;20024;-82
2022/06/24 03:24:56;;;;;;;11.93;4.40;;;;;;;17.10;100.00;100451.84;5071997;28;20115;-82
2022/06/24 03:27:21;;;;;;;14.35;4.78;;;;;;;17.10;100.00;100451.84;5070587;28;20395;-82
2022/06/24 03:29:47;;;;;;;10.80;4.32;;;;;;;17.09;100.00;100449.28;5071235;28;20024;-82
2022/06/24 03:32:13;;;;;;;13.52;4.82;;;;;;;17.10;100.00;100454.56;5071542;28;20059;-82
2022/06/24 03:34:38;;;;;;;14.50;4.70;;;;;;;17.11;100.00;100453.50;5073320;28;20130;-82
2022/06/24 03:37:04;;;;;;;13.30;5.03;;;;;;;17.16;100.00;100447.63;5069970;28;20037;-82
2022/06/24 03:39:29;;;;;;;12.30;4.80;;;;;;;17.14;100.00;100440.63;5071801;28;20031;-82
2022/06/24 03:41:55;;;;;;;16.02;4.85;;;;;;;17.15;100.00;100429.59;5060824;28;20059;-82
2022/06/24 03:44:20;;;;;;;17.08;5.50;;;;;;;17.17;100.00;100426.72;5071758;28;20086;-82
2022/06/24 03:46:46;;;;;;;12.63;5.00;;;;;;;17.15;100.00;100432.31;5069880;28;20471;-82
2022/06/24 03:49:11;;;;;;;14.73;5.55;;;;;;;17.17;100.00;100432.16;5070243;28;20036;-81
2022/06/24 03:51:36;;;;;;;14.00;5.13;;;;;;;17.17;100.00;100434.88;5069498;28;20031;-81
2022/06/24 03:54:02;;;;;;;14.90;5.15;;;;;;;17.18;100.00;100448.28;5066910;28;20032;-81
2022/06/24 03:56:28;;;;;;;14.43;5.93;;;;;;;17.21;100.00;100464.25;5069224;28;20115;-81
2022/06/24 03:58:54;;;;;;;15.00;6.40;;;;;;;17.21;100.00;100468.84;5067590;28;20082;-81
2022/06/24 04:01:19;;;;;;;16.50;6.30;;;;;;;17.20;100.00;100467.97;5062800;28;20052;-81
2022/06/24 04:03:44;;;;;;;17.67;6.38;;;;;;;17.24;100.00;100479.38;5070891;28;20351;-81
2022/06/24 04:06:10;;;;;;;16.30;6.05;;;;;;;17.24;100.00;100479.38;5065583;28;20032;-81
2022/06/24 04:08:35;;;;;;;14.68;5.72;;;;;;;17.27;100.00;100479.03;5085252;28;20094;-81
2022/06/24 04:11:14;;;;;;;20.33;6.28;;;;;;;17.26;100.00;100482.75;5070189;28;20081;-82
2022/06/24 04:13:40;;;;;;;19.38;6.40;;;;;;;17.24;100.00;100492.94;5069755;28;20032;-82
2022/06/24 04:16:05;;;;;;;16.60;6.43;;;;;;;17.22;100.00;100497.66;5084637;28;20040;-82
2022/06/24 04:18:31;;;;;;;15.18;6.03;;;;;;;17.23;100.00;100492.09;5070842;28;20021;-82
2022/06/24 04:20:56;;;;;;;17.27;6.22;;;;;;;17.23;100.00;100493.94;5074096;28;20249;-82
2022/06/24 04:23:21;;;;;;;19.02;6.93;;;;;;;17.23;100.00;100493.94;5062260;28;20043;-82
2022/06/24 04:25:47;;;;;;;16.20;6.50;;;;;;;17.26;100.00;100499.03;5069684;28;20533;-82
2022/06/24 04:28:13;;;;;;;17.60;6.70;;;;;;;17.25;100.00;100502.81;5064874;28;20029;-82
2022/06/24 04:30:38;;;;;;;17.60;6.95;;;;;;;17.29;100.00;100498.72;5067569;28;20034;-82
2022/06/24 04:33:04;;;;;;;16.73;6.43;;;;;;;17.32;100.00;100497.53;5069475;28;20041;-82
2022/06/24 04:35:29;;;;;;;19.05;7.88;;;;;;;17.33;100.00;100489.22;5068848;28;20035;-82
2022/06/24 04:37:54;;;;;;;18.45;7.70;;;;;;;17.34;100.00;100490.94;5069304;28;20036;-82
2022/06/24 04:40:20;;;;;;;20.77;7.18;;;;;;;17.34;100.00;100499.09;5069149;28;20478;-82
2022/06/24 04:42:46;;;;;;;18.23;7.63;;;;;;;17.32;100.00;100486.69;5066433;28;20020;-81
2022/06/24 04:45:11;;;;;;;18.73;7.97;;;;;;;17.32;100.00;100479.41;5068769;28;20134;-82
2022/06/24 04:47:38;;;;;;;19.17;7.90;;;;;;;17.35;100.00;100486.34;5064581;28;20099;-82
2022/06/24 04:50:04;;;;;;;19.13;8.02;;;;;;;17.34;100.00;100482.78;5068251;28;20463;-82
2022/06/24 04:52:31;;;;;;;20.27;8.15;;;;;;;17.34;100.00;100482.78;5063098;28;20032;-82
2022/06/24 04:54:56;;;;;;;19.35;9.00;;;;;;;17.34;100.00;100477.34;5064360;28;20028;-81
2022/06/24 04:57:22;;;;;;;19.67;7.93;;;;;;;17.35;100.00;100478.19;5066640;28;20032;-81
2022/06/24 04:59:47;;;;;;;19.45;8.75;;;;;;;17.40;100.00;100479.41;5068188;28;20043;-82
2022/06/24 05:02:12;;;;;;;18.30;8.25;;;;;;;17.43;100.00;100476.34;5066279;28;20020;-81
2022/06/24 05:04:38;;;;;;;19.67;9.02;;;;;;;17.47;100.00;100491.31;5067454;28;20046;-81
2022/06/24 05:07:04;;;;;;;19.95;9.63;;;;;;;17.54;100.00;100485.19;5068438;28;20050;-81
2022/06/24 05:09:29;;;;;;;20.65;9.80;;;;;;;17.56;100.00;100494.06;5065550;28;20504;-81
2022/06/24 05:11:54;;;;;;;20.60;10.10;;;;;;;17.57;100.00;100495.72;5069320;28;20020;-81
2022/06/24 05:14:20;;;;;;;21.38;9.90;;;;;;;17.56;100.00;100491.34;5069047;28;20028;-81
2022/06/24 05:16:45;;;;;;;21.10;10.40;;;;;;;17.56;100.00;100485.91;5069002;28;20025;-81
2022/06/24 05:19:11;;;;;;;20.50;10.40;;;;;;;17.58;100.00;100483.84;5065709;28;20025;-81
2022/06/24 05:21:37;;;;;;;19.92;10.27;;;;;;;17.56;100.00;100478.59;5067971;28;20039;-82
2022/06/24 05:24:03;;;;;;;23.70;11.63;;;;;;;17.57;100.00;100491.16;5062671;28;20166;-81
2022/06/24 05:26:28;;;;;;;22.08;11.07;;;;;;;17.58;100.00;100492.00;5067855;28;20036;-81
2022/06/24 05:28:53;;;;;;;21.85;11.40;;;;;;;17.60;100.00;100496.25;5067959;28;20408;-81
2022/06/24 05:31:19;;;;;;;23.52;11.15;;;;;;;17.60;100.00;100500.81;5055065;28;20028;-81
2022/06/24 05:33:45;;;;;;;22.35;11.95;;;;;;;17.61;100.00;100503.41;5068896;28;20043;-81
2022/06/24 05:36:11;;;;;;;23.77;11.77;;;;;;;17.61;100.00;100494.38;5070694;28;20104;-81
2022/06/24 05:38:36;;;;;;;24.23;12.13;;;;;;;17.66;100.00;100497.47;5067731;28;20474;-81
2022/06/24 05:41:02;;;;;;;22.73;11.70;;;;;;;17.69;100.00;100498.97;5067280;28;20028;-81
2022/06/24 05:43:28;;;;;;;21.48;11.93;;;;;;;17.69;100.00;100501.69;5069258;28;20056;-81
2022/06/24 05:45:53;;;;;;;21.13;11.13;;;;;;;17.68;100.00;100500.84;5068029;28;20044;-81
2022/06/24 05:48:19;;;;;;;21.80;11.52;;;;;;;17.73;100.00;100505.78;5068422;28;20525;-81
2022/06/24 05:50:44;;;;;;;24.00;12.70;;;;;;;17.76;100.00;100497.28;5075830;28;20036;-81
2022/06/24 05:56:00;;;;;;;24.45;13.57;;;;;;;17.79;100.00;100481.50;5065046;28;20396;-81
2022/06/24 05:58:27;;;;;;;27.25;13.65;;;;;;;17.81;100.00;100490.31;5066044;28;20074;-81
2022/06/24 06:00:54;;;;;;;24.83;13.50;;;;;;;17.85;100.00;100487.28;5068097;28;20380;-81
2022/06/24 06:03:20;;;;;;;26.13;14.57;;;;;;;17.85;100.00;100488.13;5065409;28;20028;-82
2022/06/24 06:05:45;;;;;;;25.42;15.07;;;;;;;17.84;100.00;100485.59;5065057;28;20111;-83
2022/06/24 06:08:11;;;;;;;26.30;15.27;;;;;;;17.86;100.00;100488.97;5068285;28;20123;-83
2022/06/24 06:10:37;;;;;;;26.65;16.77;;;;;;;17.89;100.00;100494.06;5052794;28;20110;-83
2022/06/24 06:13:03;;;;;;;27.45;16.95;;;;;;;17.90;100.00;100498.53;5061852;28;20170;-83
2022/06/24 06:15:31;;;;;;;29.15;17.83;;;;;;;17.94;100.00;100502.63;5066927;28;20480;-83
2022/06/24 06:17:59;;;;;;;31.92;19.63;;;;;;;17.95;100.00;100505.16;5069759;28;20028;-83
2022/06/24 06:20:24;;;;;;;31.33;18.95;;;;;;;17.99;100.00;100511.09;5078258;28;20044;-83
2022/06/24 06:22:49;;;;;;;41.28;21.23;;;;;;;17.96;100.00;100498.69;5071886;28;20144;-83
2022/06/24 06:25:15;;;;;;;31.38;18.58;;;;;;;17.98;100.00;100498.53;5068806;28;20058;-83
2022/06/24 06:27:41;;;;;;;31.17;19.92;;;;;;;17.99;100.00;100497.50;5069168;28;20023;-83
2022/06/24 06:30:07;;;;;;;31.85;20.17;;;;;;;17.99;100.00;100497.50;5067442;28;20035;-84
2022/06/24 06:32:32;;;;;;;30.25;20.63;;;;;;;18.03;100.00;100496.16;5068017;28;20427;-84
2022/06/24 06:34:57;;;;;;;32.15;20.67;;;;;;;18.06;100.00;100497.69;5056964;28;20029;-84
2022/06/24 06:37:22;;;;;;;32.25;19.98;;;;;;;18.08;100.00;100498.34;5066241;28;20525;-84
2022/06/24 06:39:48;;;;;;;33.08;20.02;;;;;;;18.11;100.00;100498.00;5068779;28;20042;-83
2022/06/24 06:42:13;;;;;;;30.90;18.95;;;;;;;18.10;100.00;100502.63;5067039;28;20041;-83
2022/06/24 06:44:39;;;;;;;29.08;18.55;;;;;;;18.13;100.00;100498.72;5068532;28;20036;-83
2022/06/24 06:47:04;;;;;;;29.95;19.17;;;;;;;18.14;100.00;100492.22;5064145;28;20376;-84
2022/06/24 06:49:31;;;;;;;30.73;19.23;;;;;;;18.11;100.00;100487.13;5069527;28;20552;-83
2022/06/24 06:51:59;;;;;;;28.17;17.98;;;;;;;18.12;100.00;100495.13;5069578;28;20024;-83
2022/06/24 06:54:25;;;;;;;30.08;20.50;;;;;;;18.14;100.00;100490.38;5069894;28;20029;-83
2022/06/24 06:56:50;;;;;;;29.98;20.85;;;;;;;18.17;100.00;100498.19;5070240;28;20027;-83
2022/06/24 06:59:15;;;;;;;29.25;19.58;;;;;;;18.20;100.00;100490.69;5070853;28;20016;-83
2022/06/24 07:01:40;;;;;;;28.80;18.88;;;;;;;18.22;100.00;100485.97;5066862;28;20089;-83
2022/06/24 07:04:06;;;;;;;29.38;19.67;;;;;;;18.21;100.00;100489.69;5071074;28;20021;-83
2022/06/24 07:06:31;;;;;;;28.73;18.75;;;;;;;18.27;100.00;100486.28;5073295;28;20104;-83
2022/06/24 07:08:56;;;;;;;29.60;20.23;;;;;;;18.29;100.00;100490.53;5071288;28;20086;-83
2022/06/24 07:11:21;;;;;;;29.05;20.08;;;;;;;18.29;100.00;100493.25;5071933;28;20024;-83
2022/06/24 07:13:47;;;;;;;28.52;18.42;;;;;;;18.28;100.00;100488.81;5072179;28;20024;-83
2022/06/24 07:16:12;;;;;;;28.65;19.75;;;;;;;18.29;100.00;100482.38;5071844;28;20025;-83
2022/06/24 07:18:37;;;;;;;30.55;20.85;;;;;;;18.28;100.00;100477.09;5071871;28;20056;-83
2022/06/24 07:21:03;;;;;;;30.95;21.02;;;;;;;18.31;100.00;100471.31;5086037;28;20555;-83
2022/06/24 07:23:28;;;;;;;30.52;19.70;;;;;;;18.31;100.00;100468.59;5092364;28;20028;-83
2022/06/24 07:25:57;;;;;;;31.98;20.90;;;;;;;18.31;100.00;100465.88;5091834;28;20068;-83
2022/06/24 07:28:24;;;;;;;29.88;21.48;;;;;;;18.40;100.00;100469.44;5071934;28;20495;-83
2022/06/24 07:30:51;;;;;;;30.42;21.00;;;;;;;18.42;100.00;100468.25;5072089;28;20085;-83
2022/06/24 07:33:16;;;;;;;31.90;22.13;;;;;;;18.44;100.00;100470.78;5065833;28;20429;-83
2022/06/24 07:35:41;;;;;;;31.73;23.08;;;;;;;18.46;100.00;100477.75;5073057;28;20085;-83
2022/06/24 07:38:06;;;;;;;32.20;23.73;;;;;;;18.50;100.00;100480.97;5073175;28;20515;-83
2022/06/24 07:40:32;;;;;;;34.97;24.90;;;;;;;18.50;100.00;100487.25;5071172;28;20023;-83
2022/06/24 07:42:57;;;;;;;38.17;26.48;;;;;;;18.54;100.00;100498.66;5071644;28;20024;-83
2022/06/24 07:45:22;;;;;;;38.50;27.38;;;;;;;18.57;100.00;100508.34;5071151;28;20024;-83
2022/06/24 07:47:48;;;;;;;47.80;34.97;;;;;;;18.57;100.00;100516.53;5070303;28;20048;-83
2022/06/24 07:50:13;;;;;;;41.35;32.15;;;;;;;18.57;100.00;100516.53;5072649;28;20115;-83
2022/06/24 07:52:38;;;;;;;42.30;33.70;;;;;;;18.52;100.00;100517.00;5071069;28;20074;-83
2022/06/24 07:57:48;;;;;;;44.28;35.05;;;;;;;18.54;100.00;100519.56;5072968;28;20043;-83
2022/06/24 08:00:13;;;;;;;43.90;35.28;;;;;;;18.51;100.00;100515.34;5074219;28;20468;-83
2022/06/24 08:02:39;;;;;;;40.10;33.13;;;;;;;18.54;100.00;100514.13;5074935;28;20123;-83
2022/06/24 08:05:04;;;;;;;42.00;33.67;;;;;;;18.58;100.00;100512.75;5080800;28;20383;-83
2022/06/24 08:07:29;;;;;;;43.83;33.58;;;;;;;18.62;100.00;100519.56;5072879;28;20033;-83
2022/06/24 08:09:55;;;;;;;39.10;31.30;;;;;;;18.66;100.00;100519.03;5079710;28;20426;-83
2022/06/24 08:12:20;;;;;;;39.38;31.92;;;;;;;18.72;100.00;100519.38;5082329;28;20518;-83
2022/06/24 08:14:46;;;;;;;36.30;29.42;;;;;;;18.78;100.00;100515.94;5078738;28;20044;-83
2022/06/24 08:17:11;;;;;;;37.65;29.60;;;;;;;18.89;100.00;100517.47;5063423;28;20525;-83
2022/06/24 08:19:36;;;;;;;33.40;25.38;;;;;;;18.91;100.00;100521.72;5072290;28;20028;-83
2022/06/24 08:22:02;;;;;;;32.20;22.67;;;;;;;19.01;100.00;100513.34;5069925;28;20028;-83
2022/06/24 08:24:27;;;;;;;30.10;21.23;;;;;;;19.06;100.00;100507.38;5073312;28;20566;-83
2022/06/24 08:26:52;;;;;;;28.40;18.52;;;;;;;19.04;100.00;100510.28;5072624;28;20119;-83
2022/06/24 08:29:17;;;;;;;29.38;20.42;;;;;;;19.10;100.00;100501.38;5079033;28;20415;-83
2022/06/24 08:31:43;;;;;;;29.73;21.55;;;;;;;19.18;100.00;100508.66;5072333;28;20154;-83
2022/06/24 08:34:09;;;;;;;29.90;20.42;;;;;;;19.27;100.00;100501.31;5074627;28;20097;-83
2022/06/24 08:36:34;;;;;;;29.40;19.17;;;;;;;19.32;100.00;100501.63;5080316;28;20039;-82
2022/06/24 08:39:00;;;;;;;29.83;20.10;;;;;;;19.41;100.00;100500.56;5070027;28;20028;-82
2022/06/24 08:41:26;;;;;;;29.58;19.55;;;;;;;19.47;100.00;100505.28;5067355;28;20476;-82
2022/06/24 08:43:53;;;;;;;30.00;19.67;;;;;;;19.50;100.00;100504.06;5078011;28;20158;-82
2022/06/24 08:46:19;;;;;;;28.73;19.02;;;;;;;19.51;100.00;100512.06;5079933;28;20021;-82
2022/06/24 08:48:45;;;;;;;29.33;20.95;;;;;;;19.59;100.00;100515.78;5072248;28;20058;-82
2022/06/24 08:51:14;;;;;;;35.08;24.50;;;;;;;19.65;100.00;100515.06;5074990;28;20048;-81
2022/06/24 08:53:40;;;;;;;33.22;26.00;;;;;;;19.70;100.00;100507.19;5077755;28;20081;-81
2022/06/24 08:56:09;;;;;;;34.30;27.73;;;;;;;19.70;98.71;100504.47;5065894;28;20122;-82
2022/06/24 08:58:35;;;;;;;34.47;25.52;;;;;;;19.73;98.24;100504.09;5069510;28;20084;-82
2022/06/24 09:01:01;;;;;;;27.75;21.27;;;;;;;19.74;98.54;100505.81;5070450;28;20119;-82
2022/06/24 09:03:26;;;;;;;29.83;20.52;;;;;;;19.70;96.04;100515.38;5068375;28;20373;-81
2022/06/24 09:05:51;;;;;;;28.38;19.92;;;;;;;19.72;97.05;100510.56;5066011;28;20020;-81
2022/06/24 09:08:17;;;;;;;29.92;21.50;;;;;;;19.71;96.44;100500.72;5071701;28;20040;-81
2022/06/24 09:11:06;;;;;;;29.35;20.85;;;;;;;19.72;96.85;100508.72;5066873;28;20024;-81
2022/06/24 09:13:41;;;;;;;31.90;24.25;;;;;;;19.80;99.11;100510.56;5069380;28;20114;-81
2022/06/24 09:16:08;;;;;;;33.50;26.23;;;;;;;19.83;97.01;100499.28;5082417;28;20157;-81
2022/06/24 09:18:33;;;;;;;34.92;27.58;;;;;;;19.89;97.67;100501.28;5077220;28;20503;-81
2022/06/24 09:20:59;;;;;;;33.72;24.55;;;;;;;19.94;96.56;100508.06;5072299;28;20040;-81
2022/06/24 09:23:24;;;;;;;34.70;26.13;;;;;;;19.96;95.73;100512.31;5077391;28;20527;-81
2022/06/24 09:25:57;;;;;;;30.10;20.42;;;;;;;19.99;95.98;100506.50;5082844;28;20173;-80
2022/06/24 09:28:24;;;;;;;30.00;19.88;;;;;;;20.11;96.29;100506.91;5078291;28;20020;-81
2022/06/24 09:30:50;;;;;;;28.13;19.40;;;;;;;20.13;94.30;100496.66;5071458;28;20063;-80
2022/06/24 09:33:18;;;;;;;27.60;18.48;;;;;;;20.17;94.56;100503.44;5068352;28;20035;-80
2022/06/24 09:35:43;;;;;;;27.33;18.42;;;;;;;20.20;95.02;100497.63;5071312;28;20280;-80
2022/06/24 09:38:09;;;;;;;26.58;17.80;;;;;;;20.31;95.66;100500.94;5067521;28;20036;-80
2022/06/24 09:40:34;;;;;;;29.40;19.15;;;;;;;20.36;92.95;100495.78;5067508;28;20027;-80
2022/06/24 09:43:02;;;;;;;26.08;17.33;;;;;;;20.53;95.91;100494.59;5068002;28;20119;-80
2022/06/24 09:45:47;;;;;;;25.20;16.10;;;;;;;20.66;93.93;100493.06;5087855;28;20036;-80
2022/06/24 09:48:28;;;;;;;23.02;14.80;;;;;;;20.79;94.10;100487.81;5071836;28;20434;-80
2022/06/24 09:50:59;;;;;;;25.58;14.68;;;;;;;20.88;90.11;100489.44;5084325;28;20032;-81
2022/06/24 09:53:26;;;;;;;22.83;13.25;;;;;;;20.92;90.84;100498.97;5079375;28;20051;-80
2022/06/24 09:55:52;;;;;;;28.08;12.68;;;;;;;20.89;87.81;100498.47;5088768;28;20063;-80
2022/06/24 09:58:19;;;;;;;21.55;12.52;;;;;;;20.85;90.30;100498.03;5083005;28;20028;-80
2022/06/24 10:00:46;;;;;;;24.20;13.02;;;;;;;20.82;92.01;100498.41;5071141;28;20063;-80
2022/06/24 10:03:13;;;;;;;22.25;12.68;;;;;;;20.75;89.51;100498.28;5067553;28;20031;-80
2022/06/24 10:05:41;;;;;;;21.67;11.98;;;;;;;20.72;87.83;100504.13;5077914;28;20040;-80
2022/06/24 10:08:10;;;;;;;22.23;12.57;;;;;;;20.70;86.14;100506.19;5089458;28;20063;-80
2022/06/24 10:10:38;;;;;;;25.02;13.00;;;;;;;20.72;89.02;100495.94;5087632;28;20042;-80
2022/06/24 10:13:09;;;;;;;22.48;13.52;;;;;;;20.72;90.21;100487.75;5065850;28;20028;-80
2022/06/24 10:15:35;;;;;;;24.42;15.68;;;;;;;20.73;89.30;100499.50;5074613;28;20028;-80
2022/06/24 10:18:07;;;;;;;23.60;15.88;;;;;;;20.71;88.09;100507.06;5075254;28;20430;-76
2022/06/24 10:20:34;;;;;;;28.40;16.40;;;;;;;20.65;89.25;100510.50;5075869;28;20082;-79
2022/06/24 10:23:02;;;;;;;19.67;8.30;;;;;;;20.48;84.52;100548.03;5074668;28;20024;-83
2022/06/24 10:26:07;;;;;;;13.38;4.00;;;;;;;20.18;84.74;100562.44;5068174;28;20024;-80
2022/06/24 10:28:33;;;;;;;19.70;5.28;;;;;;;19.57;91.45;100554.13;5059042;28;20036;-82
2022/06/24 10:30:58;;;;;;;13.25;3.53;;;;;;;19.04;87.77;100548.41;5070732;28;20119;-84
2022/06/24 10:33:28;;;;;;;9.55;3.30;;;;;;;18.65;90.54;100539.13;5072329;28;20444;-83
2022/06/24 10:36:04;;;;;;;9.98;3.53;;;;;;;18.38;91.81;100543.06;5070616;28;20430;-83
2022/06/24 10:38:36;;;;;;;12.93;4.25;;;;;;;18.25;93.05;100540.00;5071432;28;20104;-83
2022/06/24 10:41:03;;;;;;;11.13;3.70;;;;;;;18.21;96.69;100547.66;5071630;28;20119;-83
2022/06/24 10:43:40;;;;;;;18.50;4.75;;;;;;;18.20;97.97;100548.69;5072472;28;20479;-83
2022/06/24 10:46:12;;;;;;;13.90;4.78;;;;;;;18.21;99.46;100541.38;5069052;28;20115;-83
2022/06/24 10:48:43;;;;;;;16.08;5.03;;;;;;;18.23;100.00;100542.03;5079663;28;20035;-83
2022/06/24 10:51:16;;;;;;;14.90;5.45;;;;;;;18.25;100.00;100553.63;5071127;28;20470;-84
2022/06/24 10:54:16;;;;;;;13.07;5.13;;;;;;;18.32;98.43;100547.31;5065988;28;20028;-83
2022/06/24 10:56:44;;;;;;;13.30;4.82;;;;;;;18.39;100.00;100552.94;5046042;28;20036;-84
2022/06/24 10:59:10;;;;;;;12.95;4.78;;;;;;;18.39;98.32;100542.06;5062133;28;20052;-83
2022/06/24 11:01:40;;;;;;;10.48;4.03;;;;;;;18.42;98.91;100544.44;5043755;28;20032;-84
2022/06/24 11:04:08;;;;;;;11.77;3.63;;;;;;;18.41;98.06;100531.84;5061533;28;20143;-84
2022/06/24 11:06:33;;;;;;;11.77;4.05;;;;;;;18.42;97.79;100538.97;5057954;28;20043;-83
2022/06/24 11:09:06;;;;;;;9.13;3.55;;;;;;;18.49;99.41;100541.84;5055295;28;20440;-83
2022/06/24 11:11:32;;;;;;;8.00;3.83;;;;;;;18.45;96.69;100535.06;5038528;28;20068;-83
2022/06/24 11:13:58;;;;;;;8.48;3.72;;;;;;;18.49;99.39;100518.22;5043165;28;20074;-83
2022/06/24 11:16:28;;;;;;;12.35;5.03;;;;;;;18.46;96.87;100525.88;5050010;28;20034;-83